createdAt,value
2022-10-08T00:01:10.501Z,11.90
2022-10-08T00:03:16.844Z,14.47
2022-10-08T00:05:18.439Z,14.47
2022-10-08T00:07:20.042Z,13.10
2022-10-08T00:09:21.698Z,11.87
2022-10-08T00:11:26.377Z,17.83
2022-10-08T00:13:40.700Z,14.57
2022-10-08T00:15:42.828Z,15.30
2022-10-08T00:17:44.410Z,15.60
2022-10-08T00:19:46.036Z,12.70
2022-10-08T00:21:50.974Z,15.37
2022-10-08T00:23:53.232Z,11.00
2022-10-08T00:25:54.901Z,14.43
2022-10-08T00:27:56.513Z,15.87
2022-10-08T00:29:58.160Z,15.37
2022-10-08T00:31:59.906Z,13.43
2022-10-08T00:34:05.933Z,15.50
2022-10-08T00:36:11.599Z,15.10
2022-10-08T00:38:13.363Z,15.93
2022-10-08T00:40:15.941Z,16.07
2022-10-08T00:42:17.660Z,14.67
2022-10-08T00:44:44.027Z,15.43
2022-10-08T00:46:50.483Z,17.10
2022-10-08T00:49:12.454Z,17.07
2022-10-08T00:51:14.037Z,12.90
2022-10-08T00:53:15.866Z,14.27
2022-10-08T00:55:20.653Z,14.00
2022-10-08T00:57:22.771Z,12.70
2022-10-08T00:59:24.644Z,18.63
2022-10-08T01:01:26.463Z,15.40
2022-10-08T01:03:28.103Z,14.13
2022-10-08T01:05:43.187Z,16.53
2022-10-08T01:07:59.680Z,15.67
2022-10-08T01:10:10.054Z,13.67
2022-10-08T01:12:36.643Z,14.87
2022-10-08T01:14:55.016Z,15.23
2022-10-08T01:17:11.386Z,13.70
2022-10-08T01:19:25.037Z,11.87
2022-10-08T01:21:43.468Z,14.17
2022-10-08T01:24:00.798Z,13.97
2022-10-08T01:26:37.705Z,17.80
2022-10-08T01:28:48.865Z,13.97
2022-10-08T01:30:58.396Z,10.83
2022-10-08T01:33:06.076Z,9.00
2022-10-08T01:35:13.423Z,10.17
2022-10-08T01:37:29.554Z,9.97
2022-10-08T01:39:35.284Z,12.47
2022-10-08T01:41:38.826Z,11.00
2022-10-08T01:43:45.690Z,12.60
2022-10-08T01:45:57.178Z,13.37
2022-10-08T01:48:04.269Z,10.20
2022-10-08T01:50:17.927Z,11.53
2022-10-08T01:52:27.158Z,12.20
2022-10-08T01:54:33.046Z,12.17
2022-10-08T01:56:38.096Z,10.30
2022-10-08T01:58:50.156Z,9.37
2022-10-08T02:00:55.407Z,14.13
2022-10-08T02:02:57.061Z,10.03
2022-10-08T02:04:58.802Z,12.70
2022-10-08T02:07:04.964Z,13.80
2022-10-08T02:09:06.591Z,10.10
2022-10-08T02:11:08.651Z,14.73
2022-10-08T02:13:11.327Z,16.27
2022-10-08T02:16:04.350Z,11.43
2022-10-08T02:18:15.162Z,11.07
2022-10-08T02:20:32.125Z,12.77
2022-10-08T02:22:38.181Z,14.00
2022-10-08T02:24:46.184Z,10.87
2022-10-08T02:26:51.084Z,11.27
2022-10-08T02:29:06.957Z,13.53
2022-10-08T02:31:16.470Z,10.47
2022-10-08T02:33:36.210Z,12.80
2022-10-08T02:35:47.069Z,9.77
2022-10-08T02:38:13.208Z,10.13
2022-10-08T02:40:17.695Z,10.00
2022-10-08T02:42:24.474Z,10.23
2022-10-08T02:44:33.169Z,12.53
2022-10-08T02:46:40.432Z,10.53
2022-10-08T02:48:47.826Z,10.57
2022-10-08T02:50:52.307Z,13.03
2022-10-08T02:52:54.682Z,12.17
2022-10-08T02:55:01.605Z,11.10
2022-10-08T02:57:27.614Z,11.07
2022-10-08T02:59:29.564Z,11.57
2022-10-08T03:01:44.716Z,11.17
2022-10-08T03:03:57.243Z,9.47
2022-10-08T03:06:03.059Z,12.13
2022-10-08T03:08:06.149Z,12.27
2022-10-08T03:10:09.188Z,12.90
2022-10-08T03:12:11.013Z,13.07
2022-10-08T03:14:14.584Z,10.70
2022-10-08T03:16:20.461Z,13.57
2022-10-08T03:18:25.111Z,10.63
2022-10-08T03:20:27.116Z,17.20
2022-10-08T03:22:30.714Z,12.77
2022-10-08T03:24:32.378Z,10.40
2022-10-08T03:26:34.067Z,14.03
2022-10-08T03:28:35.707Z,11.53
2022-10-08T03:30:37.445Z,11.27
2022-10-08T03:32:39.108Z,10.10
2022-10-08T03:34:40.754Z,11.80
2022-10-08T03:36:42.337Z,13.60
2022-10-08T03:38:44.071Z,12.13
2022-10-08T03:40:55.427Z,10.17
2022-10-08T03:42:57.056Z,10.00
2022-10-08T03:45:01.357Z,10.17
2022-10-08T03:47:03.118Z,10.77
2022-10-08T03:49:04.886Z,11.57
2022-10-08T03:51:14.426Z,12.27
2022-10-08T03:53:16.000Z,13.50
2022-10-08T03:55:17.978Z,10.23
2022-10-08T03:57:19.598Z,12.30
2022-10-08T03:59:21.243Z,13.17
2022-10-08T04:01:24.052Z,13.60
2022-10-08T04:03:27.241Z,10.80
2022-10-08T04:05:28.843Z,10.60
2022-10-08T04:07:30.470Z,10.40
2022-10-08T04:09:32.141Z,9.67
2022-10-08T04:11:33.762Z,12.70
2022-10-08T04:13:36.951Z,11.73
2022-10-08T04:15:38.690Z,13.00
2022-10-08T04:17:43.316Z,12.60
2022-10-08T04:19:44.948Z,9.07
2022-10-08T04:21:46.604Z,10.43
2022-10-08T04:23:51.642Z,10.53
2022-10-08T04:25:54.266Z,12.83
2022-10-08T04:27:55.900Z,14.07
2022-10-08T04:29:57.500Z,13.33
2022-10-08T04:31:59.092Z,11.10
2022-10-08T04:34:00.727Z,13.17
2022-10-08T04:36:07.903Z,12.37
2022-10-08T04:38:09.476Z,8.83
2022-10-08T04:40:11.130Z,9.60
2022-10-08T04:42:12.730Z,10.70
2022-10-08T04:44:14.301Z,9.67
2022-10-08T04:46:18.384Z,10.50
2022-10-08T04:48:20.022Z,12.13
2022-10-08T04:50:21.686Z,11.80
2022-10-08T04:52:23.308Z,12.00
2022-10-08T04:54:25.011Z,10.40
2022-10-08T04:56:29.437Z,10.47
2022-10-08T04:58:31.538Z,9.37
2022-10-08T05:00:35.909Z,10.77
2022-10-08T05:02:37.558Z,9.70
2022-10-08T05:04:39.205Z,14.07
2022-10-08T05:06:40.806Z,10.67
2022-10-08T05:08:43.784Z,9.83
2022-10-08T05:10:49.422Z,11.73
2022-10-08T05:12:50.998Z,13.90
2022-10-08T05:14:52.591Z,13.77
2022-10-08T05:16:54.293Z,14.77
2022-10-08T05:18:56.605Z,14.20
2022-10-08T05:21:02.564Z,10.67
2022-10-08T05:23:04.203Z,13.00
2022-10-08T05:25:06.380Z,10.43
2022-10-08T05:27:07.946Z,11.03
2022-10-08T05:29:10.700Z,10.47
2022-10-08T05:31:12.383Z,10.87
2022-10-08T05:33:13.986Z,12.10
2022-10-08T05:35:15.746Z,12.23
2022-10-08T05:37:17.494Z,9.37
2022-10-08T05:39:19.176Z,15.50
2022-10-08T05:41:22.946Z,10.63
2022-10-08T05:43:24.515Z,10.20
2022-10-08T05:45:26.232Z,10.67
2022-10-08T05:47:27.885Z,11.93
2022-10-08T05:49:29.551Z,10.70
2022-10-08T05:51:31.887Z,12.00
2022-10-08T05:53:37.215Z,9.27
2022-10-08T05:55:38.808Z,11.03
2022-10-08T05:57:40.418Z,11.27
2022-10-08T05:59:42.072Z,9.70
2022-10-08T06:01:44.143Z,14.13
2022-10-08T06:03:50.435Z,10.77
2022-10-08T06:05:52.527Z,12.87
2022-10-08T06:07:57.489Z,14.27
2022-10-08T06:09:59.064Z,14.70
2022-10-08T06:12:00.675Z,12.93
2022-10-08T06:14:04.858Z,17.77
2022-10-08T06:16:11.573Z,11.23
2022-10-08T06:18:13.224Z,12.07
2022-10-08T06:20:14.972Z,12.20
2022-10-08T06:22:16.568Z,10.93
2022-10-08T06:24:18.255Z,13.00
2022-10-08T06:26:22.167Z,13.53
2022-10-08T06:28:23.823Z,14.17
2022-10-08T06:30:25.483Z,11.20
2022-10-08T06:32:27.071Z,10.97
2022-10-08T06:34:28.623Z,12.50
2022-10-08T06:36:30.995Z,11.57
2022-10-08T06:38:33.949Z,12.93
2022-10-08T06:40:41.591Z,12.80
2022-10-08T06:42:43.212Z,13.97
2022-10-08T06:44:44.778Z,13.97
2022-10-08T06:46:46.533Z,13.43
2022-10-08T06:48:48.676Z,16.87
2022-10-08T06:50:58.697Z,13.47
2022-10-08T06:53:00.378Z,14.20
2022-10-08T06:55:02.056Z,15.27
2022-10-08T06:57:03.669Z,12.10
2022-10-08T06:59:06.289Z,11.40
2022-10-08T07:01:10.475Z,13.50
2022-10-08T07:03:12.262Z,13.50
2022-10-08T07:05:13.962Z,11.00
2022-10-08T07:07:15.674Z,12.03
2022-10-08T07:09:17.331Z,15.07
2022-10-08T07:11:19.446Z,14.17
2022-10-08T07:13:21.700Z,15.40
2022-10-08T07:15:23.270Z,13.40
2022-10-08T07:17:26.352Z,10.80
2022-10-08T07:19:27.946Z,11.17
2022-10-08T07:21:30.503Z,11.40
2022-10-08T07:23:32.127Z,11.23
2022-10-08T07:25:33.796Z,9.77
2022-10-08T07:27:35.431Z,13.67
2022-10-08T07:29:37.027Z,13.67
2022-10-08T07:31:39.309Z,16.50
2022-10-08T07:33:41.222Z,12.20
2022-10-08T07:35:42.787Z,13.80
2022-10-08T07:37:44.395Z,13.87
2022-10-08T07:39:46.015Z,12.23
2022-10-08T07:41:49.435Z,13.40
2022-10-08T07:43:55.760Z,10.70
2022-10-08T07:45:57.481Z,14.03
2022-10-08T07:47:59.349Z,14.03
2022-10-08T07:50:00.963Z,15.77
2022-10-08T07:52:02.564Z,12.87
2022-10-08T07:54:07.413Z,13.23
2022-10-08T07:56:10.896Z,14.43
2022-10-08T07:58:13.343Z,13.63
2022-10-08T08:00:15.079Z,10.83
2022-10-08T08:02:16.972Z,5.47
2022-10-08T08:04:18.591Z,9.47
2022-10-08T08:06:20.213Z,8.87
2022-10-08T08:08:25.017Z,9.37
2022-10-08T08:10:26.570Z,7.70
2022-10-08T08:12:28.183Z,7.07
2022-10-08T08:14:29.784Z,11.57
2022-10-08T08:16:31.618Z,7.17
2022-10-08T08:18:36.168Z,6.27
2022-10-08T08:20:37.754Z,9.70
2022-10-08T08:22:39.418Z,5.37
2022-10-08T08:24:41.069Z,7.53
2022-10-08T08:26:43.622Z,8.53
2022-10-08T08:28:45.770Z,9.07
2022-10-08T08:30:47.537Z,8.30
2022-10-08T08:32:49.671Z,6.00
2022-10-08T08:34:51.486Z,5.90
2022-10-08T08:36:53.989Z,7.23
2022-10-08T08:38:56.840Z,8.50
2022-10-08T08:41:13.055Z,6.63
2022-10-08T08:43:16.356Z,6.73
2022-10-08T08:45:45.418Z,6.90
2022-10-08T08:47:53.132Z,8.60
2022-10-08T08:50:00.846Z,8.67
2022-10-08T08:52:04.931Z,11.77
2022-10-08T08:54:06.584Z,8.53
2022-10-08T08:56:14.611Z,8.97
2022-10-08T08:58:51.123Z,8.17
2022-10-08T09:01:00.287Z,7.17
2022-10-08T09:03:21.325Z,9.10
2022-10-08T09:05:25.345Z,16.03
2022-10-08T09:07:34.755Z,8.63
2022-10-08T09:09:44.967Z,7.57
2022-10-08T09:11:47.006Z,8.87
2022-10-08T09:13:57.565Z,9.10
2022-10-08T09:15:59.726Z,10.33
2022-10-08T09:18:03.827Z,8.77
2022-10-08T09:20:06.023Z,7.60
2022-10-08T09:22:40.030Z,10.17
2022-10-08T09:24:42.042Z,6.00
2022-10-08T09:26:43.730Z,6.27
2022-10-08T09:28:49.616Z,10.07
2022-10-08T09:30:51.378Z,9.30
2022-10-08T09:32:55.719Z,8.90
2022-10-08T09:34:57.358Z,10.07
2022-10-08T09:37:01.774Z,11.87
2022-10-08T09:39:07.579Z,8.57
2022-10-08T09:41:18.289Z,8.17
2022-10-08T09:43:20.137Z,7.27
2022-10-08T09:45:42.304Z,8.87
2022-10-08T09:47:43.909Z,9.20
2022-10-08T09:50:01.507Z,10.60
2022-10-08T09:52:22.368Z,7.17
2022-10-08T09:54:27.913Z,8.67
2022-10-08T09:56:31.042Z,7.87
2022-10-08T09:58:35.854Z,6.00
2022-10-08T10:00:39.645Z,9.10
2022-10-08T10:02:42.435Z,8.23
2022-10-08T10:04:45.932Z,7.30
2022-10-08T10:06:48.464Z,7.33
2022-10-08T10:09:25.157Z,7.90
2022-10-08T10:11:33.179Z,6.67
2022-10-08T10:13:38.992Z,12.27
2022-10-08T10:15:46.854Z,6.50
2022-10-08T10:17:59.678Z,8.33
2022-10-08T10:20:12.343Z,6.90
2022-10-08T10:22:49.797Z,6.00
2022-10-08T10:25:04.106Z,8.57
2022-10-08T10:27:20.405Z,10.20
2022-10-08T10:29:25.303Z,5.77
2022-10-08T10:31:42.152Z,8.37
2022-10-08T10:34:10.021Z,7.13
2022-10-08T10:36:16.884Z,6.40
2022-10-08T10:38:28.529Z,8.80
2022-10-08T10:40:34.557Z,8.17
2022-10-08T10:43:15.258Z,8.00
2022-10-08T10:45:25.317Z,2.80
2022-10-08T10:47:32.357Z,6.47
2022-10-08T10:49:38.568Z,7.40
2022-10-08T10:51:46.576Z,6.63
2022-10-08T10:54:19.246Z,7.23
2022-10-08T10:56:22.423Z,5.77
2022-10-08T10:58:45.406Z,6.57
2022-10-08T11:03:42.076Z,6.63
2022-10-08T11:05:46.212Z,8.53
2022-10-08T11:08:35.423Z,6.00
2022-10-08T11:11:14.350Z,2.93
2022-10-08T11:13:31.076Z,5.33
2022-10-08T11:15:35.524Z,2.80
2022-10-08T11:18:04.293Z,7.17
2022-10-08T11:20:24.277Z,3.43
2022-10-08T11:22:47.764Z,4.90
2022-10-08T11:24:52.493Z,4.00
2022-10-08T11:27:24.813Z,7.10
2022-10-08T11:29:29.223Z,3.53
2022-10-08T11:31:30.807Z,5.47
2022-10-08T11:33:33.430Z,2.97
2022-10-08T11:35:43.613Z,5.47
2022-10-08T11:37:48.935Z,3.93
2022-10-08T11:40:02.626Z,5.33
2022-10-08T11:42:48.564Z,3.67
2022-10-08T11:44:50.762Z,6.30
2022-10-08T11:46:52.330Z,3.17
2022-10-08T11:48:55.845Z,3.73
2022-10-08T11:51:19.003Z,5.33
2022-10-08T11:53:22.394Z,4.97
2022-10-08T11:55:27.571Z,3.20
2022-10-08T11:58:03.012Z,2.80
2022-10-08T12:00:07.936Z,5.83
2022-10-08T12:02:25.981Z,4.33
2022-10-08T12:04:31.865Z,2.30
2022-10-08T12:06:36.789Z,4.57
2022-10-08T12:08:57.098Z,5.17
2022-10-08T12:11:35.427Z,3.10
2022-10-08T12:13:37.029Z,2.47
2022-10-08T12:15:40.301Z,4.00
2022-10-08T12:17:53.022Z,4.23
2022-10-08T12:20:05.227Z,5.20
2022-10-08T12:22:24.200Z,5.83
2022-10-08T12:24:37.684Z,3.70
2022-10-08T12:27:17.796Z,4.83
2022-10-08T12:29:48.807Z,3.43
2022-10-08T12:32:01.595Z,4.53
2022-10-08T12:34:20.209Z,3.70
2022-10-08T12:36:46.931Z,2.27
2022-10-08T12:39:11.699Z,4.83
2022-10-08T12:41:25.248Z,4.80
2022-10-08T12:43:42.739Z,4.97
2022-10-08T12:46:01.307Z,4.43
2022-10-08T12:48:34.200Z,7.30
2022-10-08T12:51:02.623Z,3.83
2022-10-08T12:53:06.175Z,3.13
2022-10-08T12:55:17.718Z,1.67
2022-10-08T12:57:30.182Z,1.97
2022-10-08T12:59:32.279Z,1.50
2022-10-08T13:01:34.579Z,3.20
2022-10-08T13:03:36.208Z,4.17
2022-10-08T13:05:40.379Z,4.90
2022-10-08T13:07:41.968Z,2.83
2022-10-08T13:09:45.062Z,5.50
2022-10-08T13:11:48.739Z,3.37
2022-10-08T13:13:58.032Z,2.07
2022-10-08T13:16:01.273Z,4.03
2022-10-08T13:18:21.412Z,3.97
2022-10-08T13:20:23.885Z,4.60
2022-10-08T13:22:26.626Z,3.00
2022-10-08T13:24:28.092Z,2.30
2022-10-08T13:26:38.776Z,3.53
2022-10-08T13:28:59.191Z,4.43
2022-10-08T13:31:01.920Z,4.60
2022-10-08T13:33:15.373Z,2.70
2022-10-08T13:35:23.115Z,5.70
2022-10-08T13:37:26.982Z,4.83
2022-10-08T13:39:41.134Z,3.53
2022-10-08T13:41:56.819Z,4.93
2022-10-08T13:43:58.351Z,3.73
2022-10-08T13:46:00.406Z,2.53
2022-10-08T13:48:01.956Z,3.83
2022-10-08T13:50:03.652Z,6.40
2022-10-08T13:52:05.793Z,3.30
2022-10-08T13:54:09.172Z,3.00
2022-10-08T13:56:10.708Z,3.77
2022-10-08T13:58:14.712Z,3.33
2022-10-08T14:00:16.820Z,3.43
2022-10-08T14:02:18.388Z,3.90
2022-10-08T14:04:20.064Z,2.93
2022-10-08T14:06:21.598Z,5.50
2022-10-08T14:08:29.317Z,2.70
2022-10-08T14:10:31.452Z,4.60
2022-10-08T14:12:35.028Z,3.40
2022-10-08T14:14:36.775Z,4.63
2022-10-08T14:16:38.329Z,3.23
2022-10-08T14:18:39.901Z,1.97
2022-10-08T14:20:41.696Z,2.10
2022-10-08T14:22:43.301Z,7.80
2022-10-08T14:24:44.876Z,4.83
2022-10-08T14:26:46.517Z,5.23
2022-10-08T14:28:48.135Z,5.03
2022-10-08T14:30:49.803Z,6.97
2022-10-08T14:32:51.644Z,5.33
2022-10-08T14:34:53.177Z,2.97
2022-10-08T14:36:55.772Z,1.80
2022-10-08T14:38:57.452Z,2.43
2022-10-08T14:40:59.576Z,2.77
2022-10-08T14:43:01.122Z,3.47
2022-10-08T14:45:02.720Z,3.43
2022-10-08T14:47:04.262Z,2.70
2022-10-08T14:49:05.903Z,3.07
2022-10-08T14:51:07.499Z,2.17
2022-10-08T14:53:10.111Z,5.33
2022-10-08T14:55:12.200Z,3.17
2022-10-08T14:57:13.855Z,5.73
2022-10-08T14:59:15.581Z,2.80
2022-10-08T15:01:17.122Z,4.93
2022-10-08T15:03:18.635Z,3.70
2022-10-08T15:05:20.186Z,4.93
2022-10-08T15:07:22.053Z,3.80
2022-10-08T15:09:23.572Z,4.30
2022-10-08T15:11:25.388Z,7.23
2022-10-08T15:13:26.932Z,5.57
2022-10-08T15:15:28.426Z,5.57
2022-10-08T15:17:29.971Z,3.13
2022-10-08T15:19:31.564Z,3.47
2022-10-08T15:21:33.082Z,7.90
2022-10-08T15:23:34.635Z,4.70
2022-10-08T15:25:36.471Z,6.00
2022-10-08T15:27:38.064Z,2.13
2022-10-08T15:29:39.878Z,6.60
2022-10-08T15:31:41.507Z,1.70
2022-10-08T15:33:48.046Z,6.20
2022-10-08T15:35:51.932Z,2.97
2022-10-08T15:37:53.460Z,2.63
2022-10-08T15:39:55.016Z,2.20
2022-10-08T15:41:56.875Z,2.50
2022-10-08T15:44:09.756Z,4.53
2022-10-08T15:46:16.783Z,3.27
2022-10-08T15:48:18.591Z,3.07
2022-10-08T15:50:20.160Z,4.60
2022-10-08T15:52:22.155Z,2.73
2022-10-08T15:54:23.924Z,3.67
2022-10-08T15:56:26.135Z,3.83
2022-10-08T15:58:49.762Z,5.23
2022-10-08T16:00:52.200Z,3.13
2022-10-08T16:02:55.366Z,2.73
2022-10-08T16:04:57.075Z,4.10
2022-10-08T16:06:58.748Z,3.23
2022-10-08T16:09:00.547Z,2.27
2022-10-08T16:11:24.882Z,5.67
2022-10-08T16:13:26.452Z,5.60
2022-10-08T16:15:28.377Z,3.90
2022-10-08T16:17:30.629Z,6.73
2022-10-08T16:19:32.407Z,5.00
2022-10-08T16:21:35.594Z,3.17
2022-10-08T16:23:38.519Z,3.40
2022-10-08T16:25:43.523Z,5.67
2022-10-08T16:27:47.221Z,2.93
2022-10-08T16:29:48.928Z,6.13
2022-10-08T16:31:50.474Z,3.00
2022-10-08T16:34:03.812Z,3.23
2022-10-08T16:36:07.741Z,6.30
2022-10-08T16:38:09.283Z,2.60
2022-10-08T16:40:11.276Z,3.67
2022-10-08T16:42:12.838Z,2.60
2022-10-08T16:44:16.970Z,5.03
2022-10-08T16:46:24.855Z,4.17
2022-10-08T16:48:26.428Z,4.73
2022-10-08T16:50:27.972Z,3.80
2022-10-08T16:52:29.541Z,1.83
2022-10-08T16:54:31.462Z,5.63
2022-10-08T16:56:36.743Z,5.47
2022-10-08T16:58:38.249Z,4.93
2022-10-08T17:00:39.822Z,2.43
2022-10-08T17:02:41.417Z,5.07
2022-10-08T17:04:43.005Z,3.90
2022-10-08T17:06:44.636Z,3.20
2022-10-08T17:08:46.622Z,2.87
2022-10-08T17:10:48.178Z,3.27
2022-10-08T17:12:49.993Z,7.10
2022-10-08T17:14:51.887Z,3.73
2022-10-08T17:16:53.580Z,8.73
2022-10-08T17:18:57.155Z,3.53
2022-10-08T17:20:59.790Z,5.77
2022-10-08T17:23:01.383Z,3.87
2022-10-08T17:25:03.164Z,3.77
2022-10-08T17:27:04.696Z,5.33
2022-10-08T17:29:12.522Z,5.50
2022-10-08T17:31:28.835Z,50.63
2022-10-08T17:33:35.538Z,31.07
2022-10-08T17:35:37.602Z,35.87
2022-10-08T17:37:39.141Z,16.77
2022-10-08T17:39:40.687Z,18.87
2022-10-08T17:41:43.643Z,13.53
2022-10-08T17:43:46.131Z,15.83
2022-10-08T17:45:47.740Z,13.70
2022-10-08T17:47:49.303Z,13.50
2022-10-08T17:49:50.839Z,13.17
2022-10-08T17:51:52.414Z,12.37
2022-10-08T17:54:02.427Z,12.13
2022-10-08T17:56:08.637Z,9.53
2022-10-08T17:58:10.197Z,6.13
2022-10-08T18:00:12.555Z,7.67
2022-10-08T18:02:14.163Z,7.60
2022-10-08T18:04:18.036Z,5.87
2022-10-08T18:06:20.013Z,5.83
2022-10-08T18:08:21.567Z,5.43
2022-10-08T18:10:23.392Z,5.23
2022-10-08T18:12:24.975Z,10.13
2022-10-08T18:14:26.514Z,5.50
2022-10-08T18:16:28.098Z,6.03
2022-10-08T18:18:29.636Z,4.93
2022-10-08T18:20:31.175Z,6.53
2022-10-08T18:22:32.693Z,4.73
2022-10-08T18:24:34.841Z,4.80
2022-10-08T18:26:37.152Z,5.73
2022-10-08T18:28:38.825Z,9.27
2022-10-08T18:30:40.500Z,7.33
2022-10-08T18:32:42.668Z,6.47
2022-10-08T18:34:44.270Z,8.77
2022-10-08T18:36:46.270Z,9.43
2022-10-08T18:38:53.293Z,10.70
2022-10-08T18:40:54.824Z,8.30
2022-10-08T18:42:56.501Z,8.07
2022-10-08T18:44:58.365Z,10.63
2022-10-08T18:47:05.114Z,31.43
2022-10-08T18:49:07.373Z,8.17
2022-10-08T18:51:21.490Z,8.93
2022-10-08T18:53:23.031Z,7.23
2022-10-08T18:55:24.552Z,9.70
2022-10-08T18:57:26.146Z,7.93
2022-10-08T18:59:27.772Z,8.27
2022-10-08T19:01:34.772Z,9.97
2022-10-08T19:03:36.540Z,11.50
2022-10-08T19:05:39.005Z,10.83
2022-10-08T19:07:40.548Z,11.83
2022-10-08T19:09:42.096Z,10.70
2022-10-08T19:11:46.548Z,10.53
2022-10-08T19:13:48.086Z,8.83
2022-10-08T19:15:51.449Z,10.03
2022-10-08T19:17:53.153Z,10.20
2022-10-08T19:19:54.663Z,8.33
2022-10-08T19:21:56.298Z,9.43
2022-10-08T19:23:58.978Z,6.77
2022-10-08T19:26:00.524Z,11.30
2022-10-08T19:28:02.135Z,10.13
2022-10-08T19:30:04.270Z,10.23
2022-10-08T19:32:05.842Z,9.23
2022-10-08T19:34:08.237Z,9.90
2022-10-08T19:36:09.915Z,9.37
2022-10-08T19:38:11.475Z,12.83
2022-10-08T19:40:12.973Z,10.30
2022-10-08T19:42:14.539Z,8.63
2022-10-08T19:44:17.205Z,10.50
2022-10-08T19:46:19.312Z,8.53
2022-10-08T19:48:20.953Z,9.70
2022-10-08T19:50:22.500Z,8.73
2022-10-08T19:52:24.105Z,9.30
2022-10-08T19:54:25.797Z,10.20
2022-10-08T19:56:27.952Z,8.27
2022-10-08T19:58:29.548Z,9.37
2022-10-08T20:00:31.097Z,8.83
2022-10-08T20:02:32.730Z,8.40
2022-10-08T20:04:34.418Z,8.77
2022-10-08T20:06:39.415Z,7.63
2022-10-08T20:08:41.216Z,8.50
2022-10-08T20:10:42.760Z,10.13
2022-10-08T20:12:44.503Z,7.00
2022-10-08T20:14:46.020Z,6.60
2022-10-08T20:16:47.591Z,12.30
2022-10-08T20:18:50.876Z,10.90
2022-10-08T20:21:00.827Z,14.10
2022-10-08T20:23:02.404Z,12.17
2022-10-08T20:25:05.039Z,12.97
2022-10-08T20:27:06.611Z,12.23
2022-10-08T20:29:14.177Z,8.53
2022-10-08T20:31:19.340Z,8.47
2022-10-08T20:33:20.893Z,8.60
2022-10-08T20:35:22.462Z,6.10
2022-10-08T20:37:24.081Z,11.33
2022-10-08T20:39:25.628Z,8.97
2022-10-08T20:41:30.887Z,10.27
2022-10-08T20:43:35.698Z,8.23
2022-10-08T20:45:37.259Z,10.70
2022-10-08T20:47:38.868Z,12.00
2022-10-08T20:49:40.389Z,11.47
2022-10-08T20:51:43.747Z,8.47
2022-10-08T20:54:03.030Z,5.87
2022-10-08T20:56:14.153Z,12.93
2022-10-08T20:58:15.675Z,15.60
2022-10-08T21:00:17.269Z,10.83
2022-10-08T21:02:19.846Z,8.67
2022-10-08T21:04:22.002Z,5.67
2022-10-08T21:06:26.188Z,8.13
2022-10-08T21:08:28.043Z,8.40
2022-10-08T21:10:29.637Z,5.77
2022-10-08T21:12:31.408Z,6.33
2022-10-08T21:14:32.918Z,6.77
2022-10-08T21:16:37.922Z,7.43
2022-10-08T21:18:39.811Z,9.43
2022-10-08T21:20:41.306Z,11.87
2022-10-08T21:22:42.856Z,12.10
2022-10-08T21:24:45.229Z,11.77
2022-10-08T21:26:46.902Z,7.57
2022-10-08T21:28:51.036Z,5.90
2022-10-08T21:30:55.628Z,6.30
2022-10-08T21:32:57.221Z,6.43
2022-10-08T21:34:58.756Z,8.63
2022-10-08T21:37:00.279Z,7.87
2022-10-08T21:39:03.158Z,8.90
2022-10-08T21:41:12.508Z,7.90
2022-10-08T21:43:14.061Z,5.13
2022-10-08T21:45:15.615Z,9.43
2022-10-08T21:47:17.190Z,7.83
2022-10-08T21:49:22.855Z,7.57
2022-10-08T21:51:25.770Z,5.10
2022-10-08T21:53:29.276Z,9.13
2022-10-08T21:55:30.902Z,8.10
2022-10-08T21:57:32.458Z,8.83
2022-10-08T21:59:33.979Z,6.63
2022-10-08T22:01:39.879Z,9.73
2022-10-08T22:03:41.411Z,16.07
2022-10-08T22:05:52.875Z,7.73
2022-10-08T22:07:54.464Z,7.83
2022-10-08T22:09:55.976Z,8.30
2022-10-08T22:11:59.047Z,8.07
2022-10-08T22:14:00.645Z,7.30
2022-10-08T22:16:04.928Z,7.70
2022-10-08T22:18:06.583Z,5.37
2022-10-08T22:20:08.782Z,7.17
2022-10-08T22:22:10.469Z,6.90
2022-10-08T22:24:12.339Z,6.67
2022-10-08T22:26:19.491Z,8.40
2022-10-08T22:28:24.947Z,6.60
2022-10-08T22:30:26.716Z,10.03
2022-10-08T22:32:28.241Z,6.90
2022-10-08T22:34:29.838Z,7.13
2022-10-08T22:36:33.108Z,10.03
2022-10-08T22:38:37.145Z,8.40
2022-10-08T22:40:38.840Z,8.57
2022-10-08T22:42:40.419Z,6.80
2022-10-08T22:44:42.033Z,8.73
2022-10-08T22:46:43.539Z,7.97
2022-10-08T22:48:45.635Z,5.47
2022-10-08T22:50:47.365Z,7.63
2022-10-08T22:52:50.394Z,9.37
2022-10-08T22:54:52.127Z,7.30
2022-10-08T22:56:53.653Z,10.40
2022-10-08T22:58:55.993Z,11.80
2022-10-08T23:01:06.603Z,9.00
2022-10-08T23:03:08.192Z,9.23
2022-10-08T23:05:09.871Z,9.57
2022-10-08T23:07:11.429Z,8.17
2022-10-08T23:09:12.988Z,8.10
2022-10-08T23:11:16.271Z,10.30
2022-10-08T23:13:17.813Z,9.27
2022-10-08T23:15:20.098Z,7.43
2022-10-08T23:17:21.671Z,7.73
2022-10-08T23:19:23.219Z,11.70
2022-10-08T23:21:25.386Z,10.63
2022-10-08T23:23:26.973Z,10.17
2022-10-08T23:25:28.649Z,10.30
2022-10-08T23:27:30.184Z,11.50
2022-10-08T23:29:31.707Z,8.00
2022-10-08T23:31:36.288Z,9.30
2022-10-08T23:33:40.810Z,13.97
2022-10-08T23:35:42.618Z,10.50
2022-10-08T23:37:47.260Z,10.83
2022-10-08T23:39:48.787Z,10.73
2022-10-08T23:41:50.298Z,9.30
2022-10-08T23:43:53.021Z,9.10
2022-10-08T23:45:56.081Z,8.70
2022-10-08T23:47:57.630Z,11.50
2022-10-08T23:49:59.185Z,11.27
2022-10-08T23:52:00.731Z,8.73
2022-10-08T23:54:02.363Z,13.37
2022-10-08T23:56:04.606Z,11.67
2022-10-08T23:58:06.170Z,11.10
